Time;durP1;ratioP1;P1;durP2;ratioP2;P2;SDS_P1;SDS_P2;PMS_P1;PMS_P2;Temp;Humidity;BMP_temperature;BMP_pressure;BME280_temperature;BME280_humidity;BME280_pressure;Samples;Min_cycle;Max_cycle;Signal;HPM_P1;HPM_P2
2024/03/05 00:02:08;;;;;;;24.42;19.98;;;11.00;99.90;;;;;;5032978;28;20247;-80
2024/03/05 00:04:35;;;;;;;21.02;18.15;;;11.00;99.90;;;;;;5030838;28;20229;-80
2024/03/05 00:07:02;;;;;;;23.45;20.27;;;10.90;99.90;;;;;;5033497;28;20221;-77
2024/03/05 00:09:30;;;;;;;20.58;18.38;;;10.90;99.90;;;;;;5033814;28;20217;-77
2024/03/05 00:11:57;;;;;;;21.52;19.23;;;10.80;99.90;;;;;;5048152;28;20225;-77
2024/03/05 00:14:24;;;;;;;22.02;18.48;;;10.80;99.90;;;;;;5033801;28;20243;-76
2024/03/05 00:16:56;;;;;;;20.63;18.40;;;10.80;99.90;;;;;;5034394;28;20217;-76
2024/03/05 00:19:27;;;;;;;21.17;17.60;;;10.70;99.90;;;;;;5034348;28;20300;-80
2024/03/05 00:21:54;;;;;;;24.33;18.27;;;10.60;99.90;;;;;;5034318;28;20701;-79
2024/03/05 00:24:22;;;;;;;20.13;17.52;;;10.50;99.90;;;;;;5033493;28;20324;-80
2024/03/05 00:26:49;;;;;;;21.58;18.02;;;10.50;99.90;;;;;;5034358;28;20227;-79
2024/03/05 00:29:16;;;;;;;22.08;17.52;;;10.60;99.90;;;;;;5034207;28;20233;-76
2024/03/05 00:31:43;;;;;;;21.23;16.90;;;10.60;99.90;;;;;;5052933;28;20240;-76
2024/03/05 00:34:11;;;;;;;20.40;18.10;;;10.60;99.90;;;;;;5053227;28;20278;-79
2024/03/05 00:36:39;;;;;;;20.67;16.63;;;10.60;99.90;;;;;;5052583;28;20230;-79
2024/03/05 00:39:07;;;;;;;21.55;16.75;;;10.50;99.90;;;;;;5053259;28;20225;-76
2024/03/05 00:41:34;;;;;;;22.02;17.60;;;10.50;99.90;;;;;;5052638;28;20235;-79
2024/03/05 00:44:02;;;;;;;22.10;16.48;;;10.50;99.90;;;;;;5051598;28;20241;-79
2024/03/05 00:46:29;;;;;;;19.23;15.77;;;10.50;99.90;;;;;;5049962;28;20239;-76
2024/03/05 00:48:55;;;;;;;22.20;17.65;;;10.40;99.90;;;;;;5053549;28;20220;-76
2024/03/05 00:51:22;;;;;;;19.60;17.60;;;10.40;99.90;;;;;;5053642;28;20259;-79
2024/03/05 00:53:50;;;;;;;20.27;16.10;;;10.40;99.90;;;;;;5053675;28;20471;-79
2024/03/05 00:56:17;;;;;;;18.52;16.58;;;10.40;99.90;;;;;;5045584;28;20255;-80
2024/03/05 00:58:47;;;;;;;19.52;16.73;;;10.40;99.90;;;;;;5033639;28;20300;-79
2024/03/05 01:01:15;;;;;;;20.90;17.05;;;10.40;99.90;;;;;;5033755;28;20310;-79
2024/03/05 01:03:43;;;;;;;19.98;17.52;;;10.30;99.90;;;;;;5026090;28;20313;-76
2024/03/05 01:06:10;;;;;;;23.20;18.17;;;10.30;99.90;;;;;;5014039;28;20233;-76
2024/03/05 01:08:37;;;;;;;19.45;17.30;;;10.30;99.90;;;;;;5012610;28;20312;-76
2024/03/05 01:11:07;;;;;;;20.20;18.00;;;10.30;99.90;;;;;;5016484;28;20227;-77
2024/03/05 01:13:34;;;;;;;19.40;17.42;;;10.20;99.90;;;;;;5033242;28;20287;-75
2024/03/05 01:16:01;;;;;;;23.52;19.30;;;10.30;99.90;;;;;;5030313;28;20229;-78
2024/03/05 01:18:30;;;;;;;23.08;18.23;;;10.30;99.90;;;;;;5013143;28;20308;-78
2024/03/05 01:20:58;;;;;;;21.45;18.73;;;10.30;99.90;;;;;;5013070;28;20233;-76
2024/03/05 01:23:25;;;;;;;26.00;18.17;;;10.20;99.90;;;;;;5012093;28;20230;-76
2024/03/05 01:25:52;;;;;;;20.40;18.13;;;10.20;99.90;;;;;;5011494;28;20244;-77
2024/03/05 01:28:21;;;;;;;26.73;17.45;;;10.20;99.90;;;;;;5011834;28;20644;-77
2024/03/05 01:30:48;;;;;;;23.08;18.33;;;10.20;99.90;;;;;;5012093;28;20569;-76
2024/03/05 01:33:20;;;;;;;20.02;18.05;;;10.20;99.90;;;;;;5012987;28;20233;-77
2024/03/05 01:35:48;;;;;;;18.27;16.15;;;10.20;99.90;;;;;;5012442;28;20225;-77
2024/03/05 01:38:15;;;;;;;17.55;14.93;;;10.10;99.90;;;;;;5012377;28;20276;-79
2024/03/05 01:40:42;;;;;;;21.33;16.00;;;10.10;99.90;;;;;;5013031;28;20241;-77
2024/03/05 01:43:11;;;;;;;19.65;17.30;;;10.00;99.90;;;;;;5013471;28;20230;-79
2024/03/05 01:45:39;;;;;;;22.55;18.33;;;9.90;99.90;;;;;;5012802;28;20229;-79
2024/03/05 01:48:07;;;;;;;20.92;16.58;;;9.90;99.90;;;;;;5013326;28;20233;-79
2024/03/05 01:50:36;;;;;;;20.33;16.98;;;9.80;99.90;;;;;;5012848;28;20234;-79
2024/03/05 01:53:04;;;;;;;19.75;17.13;;;9.80;99.90;;;;;;5013219;28;20229;-79
2024/03/05 01:55:31;;;;;;;22.35;17.55;;;9.70;99.90;;;;;;5013094;28;20229;-79
2024/03/05 01:57:59;;;;;;;18.02;16.13;;;9.80;99.90;;;;;;5013411;28;20240;-77
2024/03/05 02:00:27;;;;;;;19.90;16.70;;;9.70;99.90;;;;;;5012757;28;20221;-79
2024/03/05 02:08:28;;;;;;;22.73;17.00;;;9.60;99.90;;;;;;5014790;28;20393;-77
2024/03/05 02:10:55;;;;;;;19.30;17.20;;;9.70;99.90;;;;;;5017335;28;20236;-77
2024/03/05 02:13:22;;;;;;;20.83;16.35;;;9.70;99.90;;;;;;5017186;28;20229;-79
2024/03/05 02:15:50;;;;;;;19.98;15.57;;;9.80;99.90;;;;;;5016807;28;20221;-77
2024/03/05 02:18:18;;;;;;;18.45;15.88;;;9.90;99.90;;;;;;5017061;28;20567;-77
2024/03/05 02:20:45;;;;;;;21.38;17.08;;;9.90;99.90;;;;;;5016205;28;20233;-76
2024/03/05 02:23:16;;;;;;;21.75;17.38;;;10.00;99.90;;;;;;5017150;28;20234;-79
2024/03/05 02:25:43;;;;;;;20.52;17.00;;;10.00;99.90;;;;;;5016386;28;20704;-77
2024/03/05 02:28:11;;;;;;;24.63;17.52;;;10.10;99.90;;;;;;5016239;28;20230;-79
2024/03/05 02:30:39;;;;;;;19.80;16.35;;;10.10;99.90;;;;;;5016125;28;20248;-80
2024/03/05 02:33:07;;;;;;;20.65;17.92;;;10.20;99.90;;;;;;5016851;28;20229;-79
2024/03/05 02:35:34;;;;;;;25.05;17.60;;;10.20;99.90;;;;;;5016449;28;20229;-80
2024/03/05 02:38:05;;;;;;;19.92;17.75;;;10.10;99.90;;;;;;5016694;28;20233;-79
2024/03/05 02:40:33;;;;;;;24.30;19.25;;;10.00;99.90;;;;;;5016212;28;20701;-79
2024/03/05 02:43:00;;;;;;;20.67;17.10;;;10.00;99.90;;;;;;5016418;28;20238;-79
2024/03/05 02:45:28;;;;;;;22.05;17.67;;;10.00;99.90;;;;;;5016734;28;20226;-77
2024/03/05 02:47:55;;;;;;;23.35;18.98;;;10.00;99.90;;;;;;5016185;28;20217;-77
2024/03/05 02:58:36;;;;;;;24.00;17.35;;;9.80;99.90;;;;;;5036184;28;20275;-79
2024/03/05 03:01:04;;;;;;;20.88;18.83;;;9.70;99.90;;;;;;5035373;28;20231;-77
2024/03/05 03:03:31;;;;;;;24.17;17.77;;;9.60;99.90;;;;;;5034668;28;20699;-79
2024/03/05 03:05:58;;;;;;;27.63;18.90;;;9.60;99.90;;;;;;5035729;28;20232;-79
2024/03/05 03:08:25;;;;;;;24.92;19.40;;;9.50;99.90;;;;;;5035786;28;20229;-79
2024/03/05 03:10:53;;;;;;;25.23;19.52;;;9.40;99.90;;;;;;5035508;28;20303;-77
2024/03/05 03:13:20;;;;;;;22.40;18.40;;;9.30;99.90;;;;;;5035760;28;20232;-76
2024/03/05 03:15:48;;;;;;;24.30;18.25;;;9.30;99.90;;;;;;5035086;28;20236;-79
2024/03/05 03:18:15;;;;;;;22.13;18.58;;;9.30;99.90;;;;;;5035688;28;20232;-78
2024/03/05 03:20:42;;;;;;;25.38;19.58;;;9.20;99.90;;;;;;5035218;28;20225;-76
2024/03/05 03:23:09;;;;;;;21.73;18.88;;;9.20;99.90;;;;;;5035020;28;20251;-77
2024/03/05 03:25:36;;;;;;;18.70;16.70;;;9.10;99.90;;;;;;5035496;28;20217;-79
2024/03/05 03:28:05;;;;;;;24.60;18.83;;;9.00;99.90;;;;;;5035403;28;20233;-78
2024/03/05 03:30:32;;;;;;;23.90;19.75;;;9.00;99.90;;;;;;5035400;28;20221;-77
2024/03/05 03:32:59;;;;;;;26.27;19.50;;;9.00;99.90;;;;;;5034461;28;20264;-79
2024/03/05 03:35:27;;;;;;;19.65;17.13;;;9.00;99.90;;;;;;5035637;28;20627;-79
2024/03/05 03:37:54;;;;;;;21.38;17.25;;;9.00;99.90;;;;;;5035165;28;20691;-77
2024/03/05 03:40:24;;;;;;;24.70;18.77;;;9.00;99.90;;;;;;5035361;28;20222;-77
2024/03/05 03:42:52;;;;;;;22.00;17.63;;;9.00;99.90;;;;;;5034728;28;20239;-77
2024/03/05 03:50:53;;;;;;;22.85;18.27;;;9.00;99.90;;;;;;5034473;28;20232;-79
2024/03/05 03:53:20;;;;;;;25.17;19.63;;;9.00;99.90;;;;;;5035112;28;20227;-79
2024/03/05 03:55:48;;;;;;;22.45;18.48;;;8.90;99.90;;;;;;5035142;28;20267;-79
2024/03/05 03:58:15;;;;;;;19.73;16.80;;;8.90;99.90;;;;;;5034140;28;20271;-77
2024/03/05 04:00:44;;;;;;;21.52;17.17;;;8.90;99.90;;;;;;5034892;28;20245;-79
2024/03/05 04:03:11;;;;;;;19.25;16.65;;;8.80;99.90;;;;;;5034297;28;20312;-79
2024/03/05 04:05:38;;;;;;;21.77;16.85;;;8.80;99.90;;;;;;5034621;28;20222;-79
2024/03/05 04:08:06;;;;;;;20.08;18.05;;;8.80;99.90;;;;;;5033996;28;20320;-79
2024/03/05 04:10:33;;;;;;;23.42;17.40;;;8.80;99.90;;;;;;5035037;28;20581;-79
2024/03/05 04:13:00;;;;;;;25.08;17.48;;;8.80;99.90;;;;;;5034203;28;20308;-79
2024/03/05 04:15:27;;;;;;;18.48;16.05;;;8.80;99.90;;;;;;5035090;28;20735;-77
2024/03/05 04:17:56;;;;;;;20.42;16.52;;;8.80;99.90;;;;;;5034289;28;20221;-77
2024/03/05 04:20:23;;;;;;;21.73;16.05;;;8.80;99.90;;;;;;5034631;28;20225;-77
2024/03/05 04:22:51;;;;;;;20.40;15.55;;;8.80;99.90;;;;;;5038399;28;20285;-79
2024/03/05 04:25:27;;;;;;;19.58;15.95;;;8.70;99.90;;;;;;5045599;28;20241;-77
2024/03/05 04:27:56;;;;;;;20.30;16.15;;;8.70;99.90;;;;;;5044366;28;20220;-78
2024/03/05 04:30:23;;;;;;;20.27;16.92;;;8.70;99.90;;;;;;5040740;28;20233;-79
2024/03/05 04:32:52;;;;;;;19.70;14.95;;;8.70;99.90;;;;;;5034816;28;20229;-77
2024/03/05 04:35:22;;;;;;;20.95;17.20;;;8.60;99.90;;;;;;5033578;28;20228;-77
2024/03/05 04:37:50;;;;;;;22.75;17.10;;;8.50;99.90;;;;;;5034203;28;20605;-77
2024/03/05 04:40:18;;;;;;;17.92;16.00;;;8.50;99.90;;;;;;5033848;28;20228;-79
2024/03/05 04:42:47;;;;;;;22.23;16.70;;;8.50;99.90;;;;;;5034244;28;20253;-79
2024/03/05 04:45:14;;;;;;;27.10;16.40;;;8.50;99.90;;;;;;5033857;28;20316;-78
2024/03/05 04:47:41;;;;;;;21.00;17.77;;;8.50;99.90;;;;;;5034472;28;20225;-79
2024/03/05 04:50:10;;;;;;;21.27;16.17;;;8.50;99.90;;;;;;5033330;28;20502;-78
2024/03/05 04:52:38;;;;;;;21.23;15.73;;;8.60;99.90;;;;;;5033879;28;20552;-79
2024/03/05 04:55:06;;;;;;;24.15;15.20;;;8.60;99.90;;;;;;5033625;28;20221;-78
2024/03/05 04:57:33;;;;;;;18.88;14.77;;;8.50;99.90;;;;;;5034087;28;20574;-79
2024/03/05 05:00:00;;;;;;;16.85;15.15;;;8.60;99.90;;;;;;5033250;28;20225;-79
2024/03/05 05:02:27;;;;;;;20.48;16.50;;;8.50;99.90;;;;;;5033744;28;20227;-79
2024/03/05 05:04:54;;;;;;;21.63;15.77;;;8.40;99.90;;;;;;5033630;28;20275;-77
2024/03/05 05:07:23;;;;;;;20.65;16.05;;;8.40;99.90;;;;;;5033408;28;20236;-77
2024/03/05 05:09:51;;;;;;;19.15;15.32;;;8.40;99.90;;;;;;5033933;28;20229;-77
2024/03/05 05:12:18;;;;;;;20.02;17.00;;;8.40;99.90;;;;;;5033006;28;20257;-79
2024/03/05 05:14:45;;;;;;;21.58;15.98;;;8.40;99.90;;;;;;5033665;28;20229;-79
2024/03/05 05:17:14;;;;;;;19.00;15.45;;;8.40;99.90;;;;;;5033189;28;20301;-79
2024/03/05 05:19:41;;;;;;;20.30;14.77;;;8.40;99.90;;;;;;5033546;28;20253;-79
2024/03/05 05:22:08;;;;;;;16.60;14.77;;;8.40;99.90;;;;;;5033109;28;20233;-79
2024/03/05 05:24:38;;;;;;;16.88;15.15;;;8.40;99.90;;;;;;5033388;28;20249;-79
2024/03/05 05:27:06;;;;;;;18.48;14.63;;;8.40;99.90;;;;;;5033020;28;20249;-77
2024/03/05 05:29:33;;;;;;;19.13;16.75;;;8.40;99.90;;;;;;5033349;28;20792;-79
2024/03/05 05:32:00;;;;;;;17.70;15.32;;;8.40;99.90;;;;;;5032924;28;20222;-78
2024/03/05 05:34:27;;;;;;;22.35;14.73;;;8.30;99.90;;;;;;5032920;28;20252;-79
2024/03/05 05:36:54;;;;;;;17.73;15.68;;;8.30;99.90;;;;;;5033301;28;20610;-79
2024/03/05 05:39:30;;;;;;;19.60;15.70;;;8.20;99.90;;;;;;5025616;28;20262;-77
2024/03/05 05:41:57;;;;;;;16.90;14.90;;;8.30;99.90;;;;;;5041530;28;20217;-76
2024/03/05 05:44:25;;;;;;;15.82;13.75;;;8.30;99.90;;;;;;5034025;28;20236;-76
2024/03/05 05:46:52;;;;;;;21.00;15.73;;;8.30;99.90;;;;;;5033144;28;20231;-76
2024/03/05 05:49:20;;;;;;;18.13;14.43;;;8.30;99.90;;;;;;5032457;28;20225;-77
2024/03/05 05:51:47;;;;;;;22.65;16.20;;;8.30;99.90;;;;;;5033250;28;20225;-77
2024/03/05 05:54:16;;;;;;;20.35;14.32;;;8.30;99.90;;;;;;5032498;28;20256;-77
2024/03/05 05:56:45;;;;;;;21.55;15.00;;;8.30;99.90;;;;;;5032992;28;20225;-76
2024/03/05 05:59:12;;;;;;;22.42;14.88;;;8.30;99.90;;;;;;5032636;28;20222;-77
2024/03/05 06:01:41;;;;;;;20.67;14.70;;;8.30;99.90;;;;;;5032968;28;20217;-76
2024/03/05 06:04:09;;;;;;;18.10;15.00;;;8.20;99.90;;;;;;5032289;28;20572;-77
2024/03/05 06:06:36;;;;;;;19.42;17.08;;;8.20;99.90;;;;;;5032910;28;20872;-76
2024/03/05 06:09:08;;;;;;;22.58;15.55;;;8.20;99.90;;;;;;5032811;28;20225;-76
2024/03/05 06:11:36;;;;;;;19.60;14.85;;;8.20;99.90;;;;;;5032590;28;20221;-79
2024/03/05 06:14:03;;;;;;;17.38;14.02;;;8.20;99.90;;;;;;5032830;28;20230;-79
2024/03/05 06:16:30;;;;;;;20.40;16.67;;;8.10;99.90;;;;;;5032636;28;20225;-79
2024/03/05 06:18:59;;;;;;;24.20;15.98;;;8.10;99.90;;;;;;5032659;28;20236;-77
2024/03/05 06:21:26;;;;;;;18.73;14.02;;;8.10;99.90;;;;;;5032395;28;20565;-77
2024/03/05 06:23:52;;;;;;;23.13;15.35;;;8.20;99.90;;;;;;5032702;28;20259;-77
2024/03/05 06:26:19;;;;;;;21.80;15.80;;;8.10;99.90;;;;;;5032108;28;20304;-76
2024/03/05 06:28:46;;;;;;;19.88;15.23;;;8.10;99.90;;;;;;5032672;28;20232;-76
2024/03/05 06:31:13;;;;;;;17.17;14.38;;;8.20;99.90;;;;;;5032142;28;20312;-76
2024/03/05 06:33:40;;;;;;;21.20;15.63;;;8.20;99.90;;;;;;5032422;28;20221;-77
2024/03/05 06:36:11;;;;;;;16.15;14.43;;;8.20;99.90;;;;;;5032684;28;20252;-76
2024/03/05 06:38:46;;;;;;;18.83;14.20;;;8.20;99.90;;;;;;5024034;28;20225;-76
2024/03/05 06:41:13;;;;;;;18.35;14.65;;;8.20;99.90;;;;;;5030954;28;20236;-76
2024/03/05 06:43:41;;;;;;;17.42;15.05;;;8.20;99.90;;;;;;5032105;28;20304;-77
2024/03/05 06:46:09;;;;;;;21.58;15.40;;;8.10;99.90;;;;;;5032580;28;20225;-76
2024/03/05 06:48:55;;;;;;;20.95;15.23;;;8.00;99.90;;;;;;5031560;28;20232;-77
2024/03/05 06:51:31;;;;;;;20.58;16.13;;;7.90;99.90;;;;;;5031991;28;20221;-77
2024/03/05 06:56:42;;;;;;;21.02;15.20;;;7.80;99.90;;;;;;5035812;28;20236;-76
2024/03/05 06:59:12;;;;;;;16.83;15.05;;;7.80;99.90;;;;;;5036041;28;20221;-76
2024/03/05 07:01:39;;;;;;;28.70;15.10;;;7.80;99.90;;;;;;5035324;28;20233;-77
2024/03/05 07:04:06;;;;;;;19.67;15.15;;;7.80;99.90;;;;;;5035645;28;20229;-77
2024/03/05 07:06:35;;;;;;;18.10;15.50;;;7.80;99.90;;;;;;5035673;28;20275;-77
2024/03/05 07:09:02;;;;;;;15.60;13.90;;;7.80;99.90;;;;;;5035860;28;20237;-79
2024/03/05 07:11:29;;;;;;;21.15;14.90;;;7.60;99.90;;;;;;5035188;28;20304;-79
2024/03/05 07:13:57;;;;;;;19.23;15.18;;;7.60;99.90;;;;;;5035926;28;20232;-79
2024/03/05 07:16:24;;;;;;;17.65;14.98;;;7.60;99.90;;;;;;5035294;28;20225;-78
2024/03/05 07:18:53;;;;;;;18.23;15.30;;;7.60;99.90;;;;;;5037098;28;20227;-79
2024/03/05 07:21:22;;;;;;;21.20;15.18;;;7.60;99.90;;;;;;5035636;28;20229;-78
2024/03/05 07:23:51;;;;;;;22.63;15.98;;;7.70;99.90;;;;;;5035395;28;20225;-79
2024/03/05 07:26:18;;;;;;;16.42;14.27;;;7.70;99.90;;;;;;5035695;28;20225;-79
2024/03/05 07:28:45;;;;;;;18.92;15.38;;;7.70;99.90;;;;;;5035272;28;20308;-78
2024/03/05 07:31:14;;;;;;;18.55;15.57;;;7.80;99.90;;;;;;5035325;28;20230;-79
2024/03/05 07:33:41;;;;;;;19.13;14.40;;;7.90;99.90;;;;;;5034946;28;20229;-79
2024/03/05 07:36:08;;;;;;;18.42;15.02;;;7.90;99.90;;;;;;5035489;28;20572;-79
2024/03/05 07:38:38;;;;;;;15.60;14.00;;;8.00;99.90;;;;;;5034970;28;20233;-78
2024/03/05 07:41:07;;;;;;;19.58;14.90;;;8.00;99.90;;;;;;5035389;28;20229;-79
2024/03/05 07:43:34;;;;;;;23.65;14.63;;;8.00;99.90;;;;;;5034806;28;20319;-79
2024/03/05 07:46:01;;;;;;;17.83;14.88;;;8.10;99.90;;;;;;5035273;28;20571;-79
2024/03/05 07:48:28;;;;;;;17.42;14.38;;;8.00;99.90;;;;;;5034892;28;20236;-79
2024/03/05 07:50:55;;;;;;;17.85;12.88;;;8.00;99.90;;;;;;5035031;28;20231;-79
2024/03/05 07:53:24;;;;;;;20.08;15.13;;;7.90;99.90;;;;;;5035016;28;20237;-78
2024/03/05 07:55:51;;;;;;;16.80;14.52;;;7.90;99.90;;;;;;5034912;28;20300;-78
2024/03/05 07:58:19;;;;;;;20.70;13.60;;;8.00;99.90;;;;;;5034983;28;20230;-79
2024/03/05 08:00:47;;;;;;;20.00;14.18;;;8.00;99.90;;;;;;5034326;28;20232;-79
2024/03/05 08:03:15;;;;;;;16.77;15.00;;;8.10;99.90;;;;;;5034892;28;20579;-79
2024/03/05 08:05:44;;;;;;;18.80;15.68;;;8.10;99.90;;;;;;5033385;28;20225;-78
2024/03/05 08:08:11;;;;;;;16.83;15.05;;;8.10;99.90;;;;;;5034613;28;20315;-78
2024/03/05 08:10:38;;;;;;;16.33;14.55;;;8.20;99.90;;;;;;5034023;28;20256;-78
2024/03/05 08:13:05;;;;;;;25.52;14.43;;;8.20;99.90;;;;;;5034446;28;20248;-79
2024/03/05 08:15:33;;;;;;;21.30;14.77;;;8.30;99.90;;;;;;5034036;28;20603;-79
2024/03/05 08:18:00;;;;;;;19.08;14.43;;;8.30;99.90;;;;;;5034727;28;20229;-79
2024/03/05 08:20:28;;;;;;;17.05;15.02;;;8.30;99.90;;;;;;5033872;28;20221;-78
2024/03/05 08:22:56;;;;;;;18.55;15.60;;;8.40;99.90;;;;;;5034396;28;20229;-79
2024/03/05 08:25:24;;;;;;;25.13;15.50;;;8.40;99.90;;;;;;5034343;28;20680;-79
2024/03/05 08:27:54;;;;;;;21.25;14.68;;;8.40;99.90;;;;;;5034051;28;20223;-79
2024/03/05 08:30:22;;;;;;;15.32;13.77;;;8.40;99.90;;;;;;5034348;28;20229;-79
2024/03/05 08:32:52;;;;;;;21.20;15.65;;;8.40;99.90;;;;;;5033986;28;20233;-79
2024/03/05 08:35:20;;;;;;;22.73;16.27;;;8.40;99.90;;;;;;5034185;28;20309;-79
2024/03/05 08:37:48;;;;;;;18.27;14.25;;;8.40;99.90;;;;;;5033876;28;21733;-79
2024/03/05 08:40:17;;;;;;;17.77;14.43;;;8.40;99.90;;;;;;5034241;28;20232;-79
2024/03/05 08:42:45;;;;;;;19.38;14.77;;;8.50;99.90;;;;;;5033272;28;20574;-79
2024/03/05 08:45:14;;;;;;;18.60;14.48;;;8.50;99.90;;;;;;5033995;28;20249;-78
2024/03/05 08:47:44;;;;;;;20.95;15.23;;;8.50;99.90;;;;;;5033780;28;20244;-78
2024/03/05 08:50:13;;;;;;;23.45;16.50;;;8.50;99.90;;;;;;5033719;28;20221;-78
2024/03/05 08:52:41;;;;;;;21.58;15.10;;;8.60;99.90;;;;;;5033306;28;20240;-76
2024/03/05 08:55:10;;;;;;;19.90;15.80;;;8.60;99.90;;;;;;5034245;28;20531;-76
2024/03/05 08:57:37;;;;;;;16.60;14.80;;;8.70;99.90;;;;;;5033525;28;20610;-76
2024/03/05 09:00:07;;;;;;;19.23;16.40;;;8.70;99.90;;;;;;5033976;28;20233;-76
2024/03/05 09:02:34;;;;;;;20.38;15.80;;;8.80;99.90;;;;;;5033168;28;20229;-77
2024/03/05 09:05:02;;;;;;;18.35;15.05;;;8.80;99.90;;;;;;5033800;28;20229;-76
2024/03/05 09:07:31;;;;;;;16.98;15.23;;;8.80;99.90;;;;;;5033238;28;20323;-77
2024/03/05 09:09:59;;;;;;;21.95;14.77;;;8.80;99.90;;;;;;5033607;28;20234;-77
2024/03/05 09:12:28;;;;;;;22.77;14.80;;;8.90;99.90;;;;;;5033564;28;20243;-76
2024/03/05 09:14:55;;;;;;;18.60;14.88;;;8.90;99.90;;;;;;5033361;28;20229;-76
2024/03/05 09:17:22;;;;;;;20.58;13.82;;;8.90;99.90;;;;;;5023509;28;20228;-76
2024/03/05 09:19:50;;;;;;;24.90;14.52;;;8.90;99.90;;;;;;5033035;28;20363;-76
2024/03/05 09:22:17;;;;;;;15.68;14.00;;;9.00;99.90;;;;;;5033342;28;20557;-76
2024/03/05 09:24:45;;;;;;;16.25;14.65;;;9.10;99.90;;;;;;5033076;28;20225;-77
2024/03/05 09:27:13;;;;;;;16.15;14.25;;;9.20;99.90;;;;;;5033554;28;20221;-76
2024/03/05 09:29:41;;;;;;;15.25;13.48;;;9.30;99.90;;;;;;5032535;28;20229;-76
2024/03/05 09:32:10;;;;;;;15.25;13.65;;;9.40;99.90;;;;;;5033130;28;20229;-76
2024/03/05 09:34:38;;;;;;;17.50;13.23;;;9.50;99.90;;;;;;5032610;28;20229;-77
2024/03/05 09:37:05;;;;;;;19.88;13.65;;;9.60;99.90;;;;;;5033295;28;20312;-76
2024/03/05 09:39:33;;;;;;;20.52;14.27;;;9.60;99.90;;;;;;5033561;28;20233;-77
2024/03/05 09:42:01;;;;;;;23.63;15.93;;;9.60;99.90;;;;;;5032972;28;20225;-77
2024/03/05 09:44:28;;;;;;;20.33;14.93;;;9.70;99.90;;;;;;5033053;28;20225;-76
2024/03/05 09:46:55;;;;;;;15.07;12.88;;;9.70;99.90;;;;;;5032657;28;20571;-77
2024/03/05 09:49:23;;;;;;;19.25;13.60;;;9.70;99.90;;;;;;5032943;28;20308;-76
2024/03/05 09:51:50;;;;;;;14.98;12.90;;;9.80;99.90;;;;;;5032589;28;20237;-77
2024/03/05 09:54:17;;;;;;;17.67;13.48;;;9.80;99.90;;;;;;5033143;28;20571;-76
2024/03/05 09:56:48;;;;;;;15.02;13.43;;;9.80;99.90;;;;;;5032637;28;20307;-77
2024/03/05 09:59:23;;;;;;;16.35;14.02;;;9.80;99.90;;;;;;5032727;28;20307;-76
2024/03/05 10:01:55;;;;;;;17.33;14.18;;;9.80;99.90;;;;;;5032235;28;20229;-79
2024/03/05 10:04:26;;;;;;;15.57;13.98;;;9.80;99.90;;;;;;5032851;28;20225;-78
2024/03/05 10:06:53;;;;;;;22.98;13.90;;;9.90;99.90;;;;;;5032518;28;20252;-78
2024/03/05 10:09:20;;;;;;;15.63;13.68;;;9.90;99.90;;;;;;5032569;28;20249;-79
2024/03/05 10:11:47;;;;;;;14.73;13.20;;;9.90;99.90;;;;;;5031314;28;20228;-77
2024/03/05 10:14:14;;;;;;;16.05;12.93;;;9.90;99.90;;;;;;5032921;28;20229;-77
2024/03/05 10:16:43;;;;;;;18.00;13.48;;;9.70;99.90;;;;;;5032484;28;20538;-77
2024/03/05 10:19:15;;;;;;;15.77;14.15;;;9.70;99.90;;;;;;5032897;28;20221;-77
2024/03/05 10:21:42;;;;;;;20.90;13.57;;;9.70;99.90;;;;;;5032355;28;20228;-77
2024/03/05 10:24:11;;;;;;;14.77;13.25;;;9.70;99.90;;;;;;5032779;28;20229;-77
2024/03/05 10:26:38;;;;;;;18.33;13.32;;;9.70;99.90;;;;;;5032792;28;20234;-76
2024/03/05 10:29:11;;;;;;;14.68;13.10;;;9.80;99.90;;;;;;5031841;28;20221;-77
2024/03/05 10:31:40;;;;;;;16.02;12.15;;;9.80;99.90;;;;;;5036439;28;20225;-77
2024/03/05 10:34:08;;;;;;;13.07;11.80;;;9.90;99.90;;;;;;5036242;28;20237;-76
2024/03/05 10:36:38;;;;;;;13.82;12.05;;;9.90;99.90;;;;;;5036604;28;20228;-77
2024/03/05 10:39:05;;;;;;;16.85;13.20;;;9.90;99.90;;;;;;5036085;28;20282;-77
2024/03/05 10:41:34;;;;;;;13.93;11.75;;;9.90;99.90;;;;;;5036460;28;20221;-77
2024/03/05 10:44:02;;;;;;;15.73;11.30;;;10.00;99.90;;;;;;5035662;28;20268;-77
2024/03/05 10:46:30;;;;;;;13.55;10.68;;;9.90;99.90;;;;;;5036134;28;20312;-76
2024/03/05 10:48:58;;;;;;;11.95;10.55;;;9.90;99.90;;;;;;5035927;28;20256;-77
2024/03/05 10:51:29;;;;;;;11.52;10.38;;;10.00;99.90;;;;;;5036254;28;20229;-76
2024/03/05 10:54:00;;;;;;;12.40;10.90;;;10.20;99.90;;;;;;5035402;28;20233;-76
2024/03/05 10:56:27;;;;;;;14.20;11.48;;;10.20;99.90;;;;;;5036243;28;20244;-77
2024/03/05 11:01:40;;;;;;;12.90;10.73;;;10.50;99.90;;;;;;5036349;28;20714;-77
2024/03/05 11:04:13;;;;;;;10.48;9.27;;;10.40;99.90;;;;;;5035125;28;20263;-77
2024/03/05 11:06:42;;;;;;;13.05;11.30;;;10.50;99.90;;;;;;5035749;28;20279;-77
2024/03/05 11:09:10;;;;;;;10.35;9.45;;;10.50;99.90;;;;;;5035415;28;20240;-77
2024/03/05 11:11:43;;;;;;;15.98;9.70;;;10.50;99.90;;;;;;5035801;28;20229;-77
2024/03/05 11:14:12;;;;;;;11.77;8.43;;;10.50;99.90;;;;;;5015669;28;20293;-76
2024/03/05 11:16:39;;;;;;;10.73;8.70;;;10.50;99.90;;;;;;5031455;28;20225;-77
2024/03/05 11:19:08;;;;;;;12.93;8.48;;;10.40;99.90;;;;;;5034738;28;20237;-77
2024/03/05 11:21:42;;;;;;;10.20;8.25;;;10.50;99.90;;;;;;5035661;28;20267;-76
2024/03/05 11:24:10;;;;;;;12.88;9.65;;;10.50;99.90;;;;;;5035065;28;20685;-77
2024/03/05 11:26:44;;;;;;;11.38;8.75;;;10.50;99.90;;;;;;5035599;28;20225;-76
2024/03/05 11:29:37;;;;;;;11.60;9.68;;;10.50;99.90;;;;;;5034979;28;20225;-76
2024/03/05 11:32:05;;;;;;;13.18;9.15;;;10.40;99.90;;;;;;5034961;28;20225;-77
2024/03/05 11:34:35;;;;;;;10.90;8.73;;;10.40;99.90;;;;;;5035417;28;20236;-77
2024/03/05 11:37:15;;;;;;;11.27;8.50;;;10.40;99.90;;;;;;5034741;28;20745;-77
2024/03/05 11:39:44;;;;;;;11.65;8.00;;;10.40;99.90;;;;;;5034936;28;20545;-78
2024/03/05 11:42:18;;;;;;;11.50;7.65;;;10.40;99.90;;;;;;5034885;28;20221;-77
2024/03/05 11:44:53;;;;;;;10.55;7.80;;;10.40;99.90;;;;;;5035409;28;20694;-77
2024/03/05 11:47:22;;;;;;;10.85;7.60;;;10.40;99.90;;;;;;5035322;28;20220;-77
2024/03/05 11:49:49;;;;;;;10.90;7.82;;;10.40;99.60;;;;;;5035187;28;20217;-77
2024/03/05 11:52:18;;;;;;;11.20;6.35;;;10.40;99.10;;;;;;5034524;28;20237;-77
2024/03/05 11:54:57;;;;;;;10.68;6.22;;;10.40;99.30;;;;;;5035136;28;20217;-77
2024/03/05 11:57:24;;;;;;;7.88;6.38;;;10.50;99.20;;;;;;5015348;28;20599;-77
2024/03/05 11:59:51;;;;;;;15.00;7.35;;;10.50;99.20;;;;;;5015127;28;20214;-77
2024/03/05 12:02:20;;;;;;;12.65;7.45;;;10.50;99.30;;;;;;5014580;28;20230;-77
2024/03/05 12:04:48;;;;;;;8.32;6.80;;;10.50;99.40;;;;;;5015084;28;20225;-76
2024/03/05 12:07:16;;;;;;;8.70;6.32;;;10.50;99.00;;;;;;5014318;28;20230;-77
2024/03/05 12:09:43;;;;;;;9.05;6.03;;;10.60;98.50;;;;;;5015025;28;20614;-77
2024/03/05 12:12:13;;;;;;;7.75;5.97;;;10.60;97.80;;;;;;5014220;28;20288;-77
2024/03/05 12:14:53;;;;;;;7.93;6.47;;;10.70;97.70;;;;;;5014918;28;20236;-77
2024/03/05 12:17:21;;;;;;;9.32;6.53;;;10.70;97.70;;;;;;5014189;28;20299;-79
2024/03/05 12:19:56;;;;;;;7.40;6.45;;;10.70;97.40;;;;;;5014979;28;20304;-79
2024/03/05 12:22:23;;;;;;;7.07;6.38;;;10.60;97.20;;;;;;5014046;28;20313;-79
2024/03/05 12:24:51;;;;;;;7.47;6.28;;;10.60;97.20;;;;;;5014940;28;20280;-79
2024/03/05 12:27:19;;;;;;;9.30;6.43;;;10.60;97.20;;;;;;5014185;28;20222;-79
2024/03/05 12:29:46;;;;;;;7.78;7.07;;;10.50;96.90;;;;;;5014600;28;20245;-79
2024/03/05 12:32:14;;;;;;;15.95;7.68;;;10.60;97.60;;;;;;5013806;28;20244;-79
2024/03/05 12:34:42;;;;;;;8.80;7.45;;;10.60;97.10;;;;;;5014024;28;20224;-79
2024/03/05 12:37:11;;;;;;;10.95;8.30;;;10.60;96.50;;;;;;5013963;28;20526;-79
2024/03/05 12:39:39;;;;;;;11.88;6.53;;;10.60;96.20;;;;;;5014290;28;20222;-79
2024/03/05 12:42:07;;;;;;;10.88;7.20;;;10.70;96.50;;;;;;5013886;28;20630;-79
2024/03/05 12:44:36;;;;;;;10.88;7.10;;;10.80;96.80;;;;;;5014333;28;20222;-79
2024/03/05 12:47:09;;;;;;;10.35;8.48;;;10.90;97.10;;;;;;5014448;28;20230;-79
2024/03/05 12:49:40;;;;;;;10.95;8.48;;;11.00;97.20;;;;;;5013756;28;20221;-79
2024/03/05 12:52:08;;;;;;;7.53;6.80;;;11.10;97.20;;;;;;5013446;28;20624;-79
2024/03/05 12:54:35;;;;;;;9.63;8.15;;;11.10;96.70;;;;;;5013508;28;20218;-79
2024/03/05 12:57:02;;;;;;;11.88;8.48;;;11.10;96.70;;;;;;5014225;28;20222;-79
2024/03/05 12:59:29;;;;;;;9.02;8.18;;;11.20;97.10;;;;;;5014007;28;20676;-78
2024/03/05 13:01:58;;;;;;;8.88;7.93;;;11.10;96.50;;;;;;5012751;28;20230;-79
2024/03/05 13:04:25;;;;;;;10.23;7.05;;;11.00;96.20;;;;;;5013251;28;20252;-79
2024/03/05 13:06:53;;;;;;;7.82;6.68;;;11.00;95.50;;;;;;5014144;28;20600;-79